Time;durP1;ratioP1;P1;durP2;ratioP2;P2;SDS_P1;SDS_P2;PMS_P1;PMS_P2;Temp;Humidity;BMP_temperature;BMP_pressure;BME280_temperature;BME280_humidity;BME280_pressure;Samples;Min_cycle;Max_cycle;Signal;HPM_P1;HPM_P2
2021/06/12 00:01:10;;;;;;;5.15;4.75;;;;;;;18.65;65.16;94376.84;829585;71;30349;-79
2021/06/12 00:16:14;;;;;;;5.78;5.33;;;;;;;18.68;65.10;94382.81;827670;71;32949;-78
2021/06/12 00:31:09;;;;;;;8.78;5.05;;;;;;;18.63;64.99;94365.21;833950;71;29708;-78
2021/06/12 00:46:11;;;;;;;5.67;5.20;;;;;;;18.89;64.51;94366.63;828098;71;30227;-78
2021/06/12 01:01:20;;;;;;;5.60;5.10;;;;;;;18.98;64.00;94356.61;827396;71;32624;-79
2021/06/12 01:16:19;;;;;;;5.70;5.20;;;;;;;18.99;63.86;94372.77;827413;71;33215;-79
2021/06/12 01:31:17;;;;;;;5.80;5.30;;;;;;;19.06;63.79;94381.46;827581;71;33242;-77
2021/06/12 01:46:17;;;;;;;6.03;5.53;;;;;;;19.16;63.24;94384.93;830143;70;32684;-78
2021/06/12 02:01:11;;;;;;;5.60;5.10;;;;;;;19.30;62.19;94385.82;834024;71;30156;-78
2021/06/12 02:16:18;;;;;;;6.17;5.67;;;;;;;19.33;61.33;94393.13;827287;71;33187;-81
2021/06/12 02:31:14;;;;;;;4.90;4.60;;;;;;;19.42;60.21;94385.71;833950;71;29698;-81
2021/06/12 02:46:17;;;;;;;5.33;4.92;;;;;;;19.38;59.62;94384.86;828834;71;32767;-81
2021/06/12 03:16:17;;;;;;;4.90;4.53;;;;;;;19.46;59.24;94392.45;834648;71;32664;-78
2021/06/12 03:31:20;;;;;;;5.10;4.70;;;;;;;19.46;59.01;94409.75;827806;71;33101;-80
2021/06/12 03:46:11;;;;;;;4.87;4.47;;;;;;;19.52;58.71;94407.80;828830;71;30262;-79
2021/06/12 04:01:20;;;;;;;4.50;4.20;;;;;;;19.66;58.47;94415.91;827881;71;32631;-80
2021/06/12 04:16:09;;;;;;;6.95;5.05;;;;;;;19.75;58.04;94415.95;828661;71;30484;-79
2021/06/12 04:31:14;;;;;;;5.22;4.83;;;;;;;19.96;57.55;94428.17;827911;71;32680;-79
2021/06/12 04:46:15;;;;;;;6.10;5.50;;;;;;;20.12;56.85;94428.13;824114;71;32670;-82
2021/06/12 05:01:18;;;;;;;6.87;6.33;;;;;;;20.36;56.95;94447.07;829015;71;32730;-82
2021/06/12 05:16:09;;;;;;;5.67;5.28;;;;;;;20.68;56.46;94460.25;834304;71;30265;-81
2021/06/12 05:31:18;;;;;;;7.20;6.55;;;;;;;21.15;54.46;94449.29;828146;71;32770;-80
2021/06/12 05:46:08;;;;;;;7.53;6.07;;;;;;;22.69;53.29;94470.73;834253;71;29687;-80
2021/06/12 06:01:17;;;;;;;6.87;6.23;;;;;;;24.19;50.03;94456.48;828042;71;33127;-77
2021/06/12 06:16:09;;;;;;;6.80;6.20;;;;;;;25.41;47.57;94462.81;834007;71;29725;-78
2021/06/12 06:31:12;;;;;;;7.20;6.60;;;;;;;26.44;44.98;94457.64;828535;71;30260;-81
2021/06/12 06:46:16;;;;;;;6.80;6.30;;;;;;;27.47;41.36;94445.55;828534;71;32752;-86
2021/06/12 07:01:17;;;;;;;7.73;7.13;;;;;;;28.26;39.76;94446.76;827318;71;33891;-85
2021/06/12 07:16:10;;;;;;;6.60;6.10;;;;;;;28.94;38.73;94444.59;828246;71;30287;-80
2021/06/12 07:31:16;;;;;;;6.10;5.70;;;;;;;29.57;36.65;94450.82;835539;71;32672;-79
2021/06/12 07:46:18;;;;;;;6.37;5.93;;;;;;;30.30;35.83;94430.23;834079;71;33193;-83
2021/06/12 08:01:34;;;;;;;7.60;6.90;;;;;;;31.01;34.34;94424.53;834364;71;33354;-86
2021/06/12 09:16:30;;;;;;;6.03;5.53;;;;;;;32.58;31.51;94385.70;834698;71;32716;-80
2021/06/12 09:31:26;;;;;;;5.60;5.20;;;;;;;31.25;32.64;94383.12;821646;71;33278;-82
2021/06/12 09:46:45;;;;;;;5.53;5.03;;;;;;;31.12;32.02;94369.48;821364;71;32822;-82
2021/06/12 10:01:14;;;;;;;4.97;4.67;;;;;;;31.23;32.03;94346.17;829918;71;29482;-81
2021/06/12 10:16:13;;;;;;;4.90;4.50;;;;;;;31.24;30.84;94346.33;822604;71;30125;-80
2021/06/12 10:31:21;;;;;;;4.53;4.23;;;;;;;31.52;31.01;94338.70;835676;71;32657;-82
2021/06/12 10:46:20;;;;;;;5.40;4.50;;;;;;;32.17;29.88;94318.73;827829;71;33099;-80
2021/06/12 11:01:18;;;;;;;4.70;4.30;;;;;;;31.17;30.78;94294.25;835520;71;30395;-83
2021/06/12 11:16:24;;;;;;;5.20;4.80;;;;;;;30.19;32.90;94309.77;831808;71;30151;-81
2021/06/12 11:31:38;;;;;;;5.90;5.50;;;;;;;27.90;38.78;94303.61;827568;71;33164;-78
2021/06/12 11:46:13;;;;;;;6.47;5.83;;;;;;;25.07;100.00;123554.15;828954;71;30301;-80
2021/06/12 12:01:14;;;;;;;6.90;5.83;;;;;;;23.87;47.84;94312.92;828075;71;32644;-78
2021/06/12 12:16:22;;;;;;;6.73;6.13;;;;;;;21.06;63.89;94370.03;829300;71;29696;-77
2021/06/12 12:31:15;;;;;;;6.53;5.60;;;;;;;19.36;69.73;94343.19;827276;71;32743;-80
2021/06/12 12:46:13;;;;;;;5.25;4.85;;;;;;;19.03;70.50;94331.07;819301;71;31967;-75
2021/06/12 13:01:11;;;;;;;6.00;5.42;;;;;;;19.19;68.34;94324.40;820820;71;30458;-78
2021/06/12 13:16:09;;;;;;;6.05;5.55;;;;;;;19.67;75.10;94329.58;826250;71;30343;-78
2021/06/12 13:31:22;;;;;;;6.58;5.83;;;;;;;20.15;73.85;94317.64;822907;71;32881;-75
2021/06/12 13:46:15;;;;;;;6.58;5.40;;;;;;;20.45;68.89;94317.57;819995;71;30409;-76
2021/06/12 14:01:11;;;;;;;5.40;5.00;;;;;;;20.92;68.78;94323.13;820059;71;30344;-78
2021/06/12 14:16:23;;;;;;;5.47;4.97;;;;;;;21.36;64.93;94312.71;818421;71;33809;-78
2021/06/12 14:31:24;;;;;;;6.50;5.40;;;;;;;22.01;63.27;94320.22;833897;71;32687;-77
2021/06/12 14:46:08;;;;;;;4.40;4.03;;;;;;;23.19;56.51;94304.50;819882;71;30417;-78
2021/06/12 15:16:11;;;;;;;6.97;6.37;;;;;;;22.88;52.53;94319.94;819557;71;32581;-78
2021/06/12 15:31:16;;;;;;;6.27;5.77;;;;;;;22.92;52.69;94323.41;833829;71;32707;-75
2021/06/12 15:46:20;;;;;;;6.07;5.67;;;;;;;23.17;51.97;94303.52;833849;71;32701;-78
2021/06/12 16:01:14;;;;;;;9.10;8.17;;;;;;;23.20;51.93;94322.87;827751;71;32835;-77
2021/06/12 16:16:15;;;;;;;6.73;6.23;;;;;;;23.19;51.22;94318.67;824416;71;32858;-77
2021/06/12 16:31:38;;;;;;;8.50;7.70;;;;;;;23.40;56.58;94329.32;821164;71;32865;-80
2021/06/12 21:16:27;;;;;;;7.72;7.05;;;;;;;19.50;70.34;94393.30;836088;70;32806;-86
2021/06/12 21:31:17;;;;;;;7.20;6.17;;;;;;;19.83;68.05;94394.25;835710;69;32694;-86
2021/06/12 21:46:12;;;;;;;6.70;6.12;;;;;;;19.93;66.61;94396.36;828270;71;32523;-85
2021/06/12 22:01:13;;;;;;;5.80;5.28;;;;;;;19.94;65.16;94412.54;828267;71;30443;-84
2021/06/12 22:16:16;;;;;;;6.65;6.12;;;;;;;19.77;65.75;94411.05;834161;71;31728;-85
2021/06/12 22:31:18;;;;;;;7.03;6.42;;;;;;;19.85;65.69;94409.86;834241;71;31786;-83
2021/06/12 22:46:09;;;;;;;6.55;6.05;;;;;;;19.30;67.28;94416.42;828575;71;29739;-84
2021/06/12 23:01:15;;;;;;;8.15;7.35;;;;;;;19.00;69.56;94425.61;834919;71;31765;-87
2021/06/12 23:16:09;;;;;;;8.08;7.30;;;;;;;19.08;69.46;94423.91;829031;71;29782;-84
2021/06/12 23:31:08;;;;;;;7.85;7.10;;;;;;;19.12;69.27;94409.34;829057;71;28684;-85
2021/06/12 23:46:16;;;;;;;7.97;7.30;;;;;;;19.14;69.02;94407.11;827500;71;31791;-85
